sensor_id;sensor_type;location;lat;lon;timestamp;P1;durP1;ratioP1;P2;durP2;ratioP2
30553;SDS011;17335;50.720;7.452;2023-12-28T00:02:11;7.80;;;2.15;;
30553;SDS011;17335;50.720;7.452;2023-12-28T00:04:39;5.75;;;1.80;;
30553;SDS011;17335;50.720;7.452;2023-12-28T00:07:06;3.85;;;1.63;;
30553;SDS011;17335;50.720;7.452;2023-12-28T00:09:33;3.45;;;1.58;;
30553;SDS011;17335;50.720;7.452;2023-12-28T00:11:59;4.55;;;1.88;;
30553;SDS011;17335;50.720;7.452;2023-12-28T00:14:27;4.90;;;2.10;;
30553;SDS011;17335;50.720;7.452;2023-12-28T00:16:53;5.30;;;1.80;;
30553;SDS011;17335;50.720;7.452;2023-12-28T00:19:20;3.60;;;1.70;;
30553;SDS011;17335;50.720;7.452;2023-12-28T00:21:47;3.70;;;1.80;;
30553;SDS011;17335;50.720;7.452;2023-12-28T00:24:15;4.45;;;2.13;;
30553;SDS011;17335;50.720;7.452;2023-12-28T00:26:42;5.80;;;1.88;;
30553;SDS011;17335;50.720;7.452;2023-12-28T00:29:08;3.80;;;1.70;;
30553;SDS011;17335;50.720;7.452;2023-12-28T00:31:35;4.28;;;2.00;;
30553;SDS011;17335;50.720;7.452;2023-12-28T00:34:01;7.00;;;1.83;;
30553;SDS011;17335;50.720;7.452;2023-12-28T00:36:28;4.20;;;2.00;;
30553;SDS011;17335;50.720;7.452;2023-12-28T00:38:55;6.32;;;2.15;;
30553;SDS011;17335;50.720;7.452;2023-12-28T00:41:21;2.65;;;1.55;;
30553;SDS011;17335;50.720;7.452;2023-12-28T00:43:48;5.75;;;2.15;;
30553;SDS011;17335;50.720;7.452;2023-12-28T00:46:15;8.55;;;2.03;;
30553;SDS011;17335;50.720;7.452;2023-12-28T00:48:41;7.35;;;2.22;;
30553;SDS011;17335;50.720;7.452;2023-12-28T00:51:08;8.00;;;3.03;;
30553;SDS011;17335;50.720;7.452;2023-12-28T00:53:35;5.88;;;2.03;;
30553;SDS011;17335;50.720;7.452;2023-12-28T00:56:01;5.45;;;2.05;;
30553;SDS011;17335;50.720;7.452;2023-12-28T00:58:28;4.70;;;2.10;;
30553;SDS011;17335;50.720;7.452;2023-12-28T01:00:54;5.28;;;1.83;;
30553;SDS011;17335;50.720;7.452;2023-12-28T01:03:23;5.07;;;2.08;;
30553;SDS011;17335;50.720;7.452;2023-12-28T01:05:51;5.78;;;2.15;;
30553;SDS011;17335;50.720;7.452;2023-12-28T01:08:18;3.95;;;2.00;;
30553;SDS011;17335;50.720;7.452;2023-12-28T01:10:45;4.20;;;2.00;;
30553;SDS011;17335;50.720;7.452;2023-12-28T01:13:12;5.70;;;2.13;;
30553;SDS011;17335;50.720;7.452;2023-12-28T01:15:38;4.75;;;1.95;;
30553;SDS011;17335;50.720;7.452;2023-12-28T01:18:05;4.43;;;1.98;;
30553;SDS011;17335;50.720;7.452;2023-12-28T01:20:31;4.50;;;2.15;;
30553;SDS011;17335;50.720;7.452;2023-12-28T01:22:58;4.72;;;2.15;;
30553;SDS011;17335;50.720;7.452;2023-12-28T01:25:27;8.00;;;1.88;;
30553;SDS011;17335;50.720;7.452;2023-12-28T01:27:53;4.28;;;2.10;;
30553;SDS011;17335;50.720;7.452;2023-12-28T01:30:20;4.88;;;2.00;;
30553;SDS011;17335;50.720;7.452;2023-12-28T01:32:47;5.70;;;2.20;;
30553;SDS011;17335;50.720;7.452;2023-12-28T01:35:14;4.70;;;1.95;;
30553;SDS011;17335;50.720;7.452;2023-12-28T01:37:40;3.17;;;1.90;;
30553;SDS011;17335;50.720;7.452;2023-12-28T01:40:07;3.00;;;1.70;;
30553;SDS011;17335;50.720;7.452;2023-12-28T01:42:35;5.70;;;2.00;;
30553;SDS011;17335;50.720;7.452;2023-12-28T01:45:02;5.20;;;1.80;;
30553;SDS011;17335;50.720;7.452;2023-12-28T01:47:29;5.97;;;1.80;;
30553;SDS011;17335;50.720;7.452;2023-12-28T01:49:56;3.85;;;1.90;;
30553;SDS011;17335;50.720;7.452;2023-12-28T01:52:24;3.33;;;1.73;;
30553;SDS011;17335;50.720;7.452;2023-12-28T01:54:51;3.90;;;2.10;;
30553;SDS011;17335;50.720;7.452;2023-12-28T01:57:19;3.28;;;1.77;;
30553;SDS011;17335;50.720;7.452;2023-12-28T01:59:46;4.07;;;1.70;;
30553;SDS011;17335;50.720;7.452;2023-12-28T02:02:13;3.10;;;1.50;;
30553;SDS011;17335;50.720;7.452;2023-12-28T02:04:40;2.67;;;1.55;;
30553;SDS011;17335;50.720;7.452;2023-12-28T02:07:07;2.45;;;1.30;;
30553;SDS011;17335;50.720;7.452;2023-12-28T02:09:34;3.65;;;1.52;;
30553;SDS011;17335;50.720;7.452;2023-12-28T02:12:01;5.32;;;1.63;;
30553;SDS011;17335;50.720;7.452;2023-12-28T02:14:28;3.08;;;1.48;;
30553;SDS011;17335;50.720;7.452;2023-12-28T02:20:13;2.72;;;1.25;;
30553;SDS011;17335;50.720;7.452;2023-12-28T02:22:41;2.63;;;1.30;;
30553;SDS011;17335;50.720;7.452;2023-12-28T02:25:09;3.90;;;1.38;;
30553;SDS011;17335;50.720;7.452;2023-12-28T02:27:41;1.90;;;1.10;;
30553;SDS011;17335;50.720;7.452;2023-12-28T02:30:10;1.52;;;1.10;;
30553;SDS011;17335;50.720;7.452;2023-12-28T02:32:47;4.13;;;1.42;;
30553;SDS011;17335;50.720;7.452;2023-12-28T02:35:27;3.50;;;1.40;;
30553;SDS011;17335;50.720;7.452;2023-12-28T02:37:59;1.58;;;1.00;;
30553;SDS011;17335;50.720;7.452;2023-12-28T02:40:37;2.13;;;1.25;;
30553;SDS011;17335;50.720;7.452;2023-12-28T02:43:06;4.15;;;1.50;;
30553;SDS011;17335;50.720;7.452;2023-12-28T02:45:33;2.80;;;1.45;;
30553;SDS011;17335;50.720;7.452;2023-12-28T02:48:00;4.07;;;1.55;;
30553;SDS011;17335;50.720;7.452;2023-12-28T02:50:28;3.33;;;1.67;;
30553;SDS011;17335;50.720;7.452;2023-12-28T02:52:58;3.50;;;1.80;;
30553;SDS011;17335;50.720;7.452;2023-12-28T02:55:25;5.53;;;1.55;;
30553;SDS011;17335;50.720;7.452;2023-12-28T02:57:53;3.20;;;1.50;;
30553;SDS011;17335;50.720;7.452;2023-12-28T03:00:22;3.90;;;1.58;;
30553;SDS011;17335;50.720;7.452;2023-12-28T03:02:49;4.50;;;1.75;;
30553;SDS011;17335;50.720;7.452;2023-12-28T03:05:16;3.70;;;1.60;;
30553;SDS011;17335;50.720;7.452;2023-12-28T03:07:43;3.83;;;1.73;;
30553;SDS011;17335;50.720;7.452;2023-12-28T03:10:10;3.33;;;1.58;;
30553;SDS011;17335;50.720;7.452;2023-12-28T03:12:40;3.50;;;1.70;;
30553;SDS011;17335;50.720;7.452;2023-12-28T03:15:07;3.65;;;1.52;;
30553;SDS011;17335;50.720;7.452;2023-12-28T03:17:34;3.33;;;1.70;;
30553;SDS011;17335;50.720;7.452;2023-12-28T03:20:03;3.35;;;1.90;;
30553;SDS011;17335;50.720;7.452;2023-12-28T03:22:30;5.57;;;2.20;;
30553;SDS011;17335;50.720;7.452;2023-12-28T03:24:57;4.45;;;1.80;;
30553;SDS011;17335;50.720;7.452;2023-12-28T03:27:23;4.72;;;1.90;;
30553;SDS011;17335;50.720;7.452;2023-12-28T03:29:50;3.08;;;1.50;;
30553;SDS011;17335;50.720;7.452;2023-12-28T03:32:16;5.53;;;1.92;;
30553;SDS011;17335;50.720;7.452;2023-12-28T03:34:43;3.55;;;1.67;;
30553;SDS011;17335;50.720;7.452;2023-12-28T03:37:10;3.20;;;1.80;;
30553;SDS011;17335;50.720;7.452;2023-12-28T03:39:37;4.35;;;1.90;;
30553;SDS011;17335;50.720;7.452;2023-12-28T03:42:04;4.13;;;1.92;;
30553;SDS011;17335;50.720;7.452;2023-12-28T03:44:30;4.97;;;1.95;;
30553;SDS011;17335;50.720;7.452;2023-12-28T03:46:57;8.35;;;2.08;;
30553;SDS011;17335;50.720;7.452;2023-12-28T03:49:24;7.35;;;2.10;;
30553;SDS011;17335;50.720;7.452;2023-12-28T03:51:50;5.15;;;2.00;;
30553;SDS011;17335;50.720;7.452;2023-12-28T03:54:19;3.92;;;1.73;;
30553;SDS011;17335;50.720;7.452;2023-12-28T03:56:46;4.75;;;2.20;;
30553;SDS011;17335;50.720;7.452;2023-12-28T03:59:13;4.13;;;1.85;;
30553;SDS011;17335;50.720;7.452;2023-12-28T04:01:41;3.10;;;1.80;;
30553;SDS011;17335;50.720;7.452;2023-12-28T04:04:09;4.50;;;2.00;;
30553;SDS011;17335;50.720;7.452;2023-12-28T04:06:37;3.70;;;1.60;;
30553;SDS011;17335;50.720;7.452;2023-12-28T04:09:04;4.47;;;1.90;;
30553;SDS011;17335;50.720;7.452;2023-12-28T04:11:31;4.93;;;1.95;;
30553;SDS011;17335;50.720;7.452;2023-12-28T04:13:58;4.72;;;2.22;;
30553;SDS011;17335;50.720;7.452;2023-12-28T04:16:24;7.30;;;2.40;;
30553;SDS011;17335;50.720;7.452;2023-12-28T04:18:51;4.22;;;2.03;;
30553;SDS011;17335;50.720;7.452;2023-12-28T04:21:18;4.47;;;2.05;;
30553;SDS011;17335;50.720;7.452;2023-12-28T04:23:45;8.48;;;2.38;;
30553;SDS011;17335;50.720;7.452;2023-12-28T04:26:11;7.22;;;2.10;;
30553;SDS011;17335;50.720;7.452;2023-12-28T04:28:38;5.63;;;2.10;;
30553;SDS011;17335;50.720;7.452;2023-12-28T04:31:05;5.40;;;2.15;;
30553;SDS011;17335;50.720;7.452;2023-12-28T04:33:33;6.95;;;2.70;;
30553;SDS011;17335;50.720;7.452;2023-12-28T04:36:00;4.45;;;2.28;;
30553;SDS011;17335;50.720;7.452;2023-12-28T04:38:29;7.95;;;2.63;;
30553;SDS011;17335;50.720;7.452;2023-12-28T04:40:57;5.90;;;3.00;;
30553;SDS011;17335;50.720;7.452;2023-12-28T04:43:25;5.70;;;2.80;;
30553;SDS011;17335;50.720;7.452;2023-12-28T04:45:52;7.13;;;2.55;;
30553;SDS011;17335;50.720;7.452;2023-12-28T04:48:19;3.97;;;2.00;;
30553;SDS011;17335;50.720;7.452;2023-12-28T04:50:50;6.18;;;2.30;;
30553;SDS011;17335;50.720;7.452;2023-12-28T04:53:19;6.60;;;2.55;;
30553;SDS011;17335;50.720;7.452;2023-12-28T04:55:45;6.10;;;2.28;;
30553;SDS011;17335;50.720;7.452;2023-12-28T04:58:12;4.97;;;2.28;;
30553;SDS011;17335;50.720;7.452;2023-12-28T05:00:39;5.53;;;2.38;;
30553;SDS011;17335;50.720;7.452;2023-12-28T05:03:06;4.47;;;2.45;;
30553;SDS011;17335;50.720;7.452;2023-12-28T05:05:33;7.07;;;2.17;;
30553;SDS011;17335;50.720;7.452;2023-12-28T05:08:00;5.65;;;2.15;;
30553;SDS011;17335;50.720;7.452;2023-12-28T05:10:27;4.78;;;2.40;;
30553;SDS011;17335;50.720;7.452;2023-12-28T05:12:54;4.35;;;2.40;;
30553;SDS011;17335;50.720;7.452;2023-12-28T05:15:27;7.38;;;2.75;;
30553;SDS011;17335;50.720;7.452;2023-12-28T05:17:54;6.03;;;2.25;;
30553;SDS011;17335;50.720;7.452;2023-12-28T05:20:21;5.22;;;1.95;;
30553;SDS011;17335;50.720;7.452;2023-12-28T05:22:48;5.65;;;2.60;;
30553;SDS011;17335;50.720;7.452;2023-12-28T05:25:14;4.85;;;2.50;;
30553;SDS011;17335;50.720;7.452;2023-12-28T05:27:41;5.25;;;2.38;;
30553;SDS011;17335;50.720;7.452;2023-12-28T05:30:09;3.90;;;2.40;;
30553;SDS011;17335;50.720;7.452;2023-12-28T05:32:37;5.25;;;2.40;;
30553;SDS011;17335;50.720;7.452;2023-12-28T05:35:04;5.95;;;2.25;;
30553;SDS011;17335;50.720;7.452;2023-12-28T05:37:31;6.65;;;2.28;;
30553;SDS011;17335;50.720;7.452;2023-12-28T05:39:57;5.30;;;2.58;;
30553;SDS011;17335;50.720;7.452;2023-12-28T05:42:24;4.25;;;2.53;;
30553;SDS011;17335;50.720;7.452;2023-12-28T05:44:51;5.03;;;2.50;;
30553;SDS011;17335;50.720;7.452;2023-12-28T05:47:17;4.25;;;2.40;;
30553;SDS011;17335;50.720;7.452;2023-12-28T05:49:44;3.95;;;1.95;;
30553;SDS011;17335;50.720;7.452;2023-12-28T05:52:10;4.10;;;2.28;;
30553;SDS011;17335;50.720;7.452;2023-12-28T05:54:37;4.95;;;2.47;;
30553;SDS011;17335;50.720;7.452;2023-12-28T05:57:04;5.72;;;2.53;;
30553;SDS011;17335;50.720;7.452;2023-12-28T05:59:30;6.22;;;2.28;;
30553;SDS011;17335;50.720;7.452;2023-12-28T06:01:57;4.75;;;2.40;;
30553;SDS011;17335;50.720;7.452;2023-12-28T06:04:23;4.22;;;2.40;;
30553;SDS011;17335;50.720;7.452;2023-12-28T06:06:50;4.65;;;2.50;;
30553;SDS011;17335;50.720;7.452;2023-12-28T06:09:17;6.57;;;2.38;;
30553;SDS011;17335;50.720;7.452;2023-12-28T06:11:43;4.93;;;2.40;;
30553;SDS011;17335;50.720;7.452;2023-12-28T06:14:10;5.72;;;2.50;;
30553;SDS011;17335;50.720;7.452;2023-12-28T06:16:36;3.97;;;2.38;;
30553;SDS011;17335;50.720;7.452;2023-12-28T06:19:03;5.20;;;2.30;;
30553;SDS011;17335;50.720;7.452;2023-12-28T06:21:31;7.05;;;2.58;;
30553;SDS011;17335;50.720;7.452;2023-12-28T06:23:58;4.45;;;2.35;;
30553;SDS011;17335;50.720;7.452;2023-12-28T06:26:24;4.32;;;2.25;;
30553;SDS011;17335;50.720;7.452;2023-12-28T06:28:51;4.13;;;2.33;;
30553;SDS011;17335;50.720;7.452;2023-12-28T06:31:17;7.40;;;2.30;;
30553;SDS011;17335;50.720;7.452;2023-12-28T06:33:44;5.30;;;2.78;;
30553;SDS011;17335;50.720;7.452;2023-12-28T06:36:11;4.55;;;2.22;;
30553;SDS011;17335;50.720;7.452;2023-12-28T06:38:39;4.40;;;2.28;;
30553;SDS011;17335;50.720;7.452;2023-12-28T06:41:12;6.25;;;2.63;;
30553;SDS011;17335;50.720;7.452;2023-12-28T06:43:39;4.68;;;2.25;;
30553;SDS011;17335;50.720;7.452;2023-12-28T06:46:05;4.90;;;2.35;;
30553;SDS011;17335;50.720;7.452;2023-12-28T06:48:34;6.03;;;2.17;;
30553;SDS011;17335;50.720;7.452;2023-12-28T06:51:01;6.32;;;2.67;;
30553;SDS011;17335;50.720;7.452;2023-12-28T06:53:28;4.28;;;2.40;;
30553;SDS011;17335;50.720;7.452;2023-12-28T06:55:55;8.00;;;2.90;;
30553;SDS011;17335;50.720;7.452;2023-12-28T06:58:22;4.97;;;2.58;;
30553;SDS011;17335;50.720;7.452;2023-12-28T07:00:48;6.65;;;2.55;;
30553;SDS011;17335;50.720;7.452;2023-12-28T07:03:15;4.80;;;2.53;;
30553;SDS011;17335;50.720;7.452;2023-12-28T07:05:42;5.78;;;2.47;;
30553;SDS011;17335;50.720;7.452;2023-12-28T07:08:09;3.47;;;2.10;;
30553;SDS011;17335;50.720;7.452;2023-12-28T07:10:35;4.93;;;2.40;;
30553;SDS011;17335;50.720;7.452;2023-12-28T07:13:02;10.43;;;2.53;;
30553;SDS011;17335;50.720;7.452;2023-12-28T07:15:29;13.13;;;2.58;;
30553;SDS011;17335;50.720;7.452;2023-12-28T07:17:55;4.80;;;2.38;;
30553;SDS011;17335;50.720;7.452;2023-12-28T07:20:23;8.75;;;2.15;;
30553;SDS011;17335;50.720;7.452;2023-12-28T07:22:49;5.50;;;2.00;;
30553;SDS011;17335;50.720;7.452;2023-12-28T07:25:20;7.32;;;2.25;;
30553;SDS011;17335;50.720;7.452;2023-12-28T07:27:46;6.20;;;2.35;;
30553;SDS011;17335;50.720;7.452;2023-12-28T07:30:13;6.35;;;2.20;;
30553;SDS011;17335;50.720;7.452;2023-12-28T07:32:40;4.18;;;2.25;;
30553;SDS011;17335;50.720;7.452;2023-12-28T07:35:07;7.35;;;2.63;;
30553;SDS011;17335;50.720;7.452;2023-12-28T07:37:34;6.50;;;2.25;;
30553;SDS011;17335;50.720;7.452;2023-12-28T07:40:01;4.93;;;2.03;;
30553;SDS011;17335;50.720;7.452;2023-12-28T07:42:29;6.70;;;2.38;;
30553;SDS011;17335;50.720;7.452;2023-12-28T07:44:56;4.38;;;2.10;;
30553;SDS011;17335;50.720;7.452;2023-12-28T07:47:22;5.95;;;2.10;;
30553;SDS011;17335;50.720;7.452;2023-12-28T07:49:49;4.78;;;2.13;;
30553;SDS011;17335;50.720;7.452;2023-12-28T07:52:15;6.03;;;2.05;;
30553;SDS011;17335;50.720;7.452;2023-12-28T07:54:42;4.50;;;2.08;;
30553;SDS011;17335;50.720;7.452;2023-12-28T07:57:09;6.93;;;2.15;;
30553;SDS011;17335;50.720;7.452;2023-12-28T07:59:35;3.58;;;1.77;;
30553;SDS011;17335;50.720;7.452;2023-12-28T08:02:02;13.40;;;4.95;;
30553;SDS011;17335;50.720;7.452;2023-12-28T08:04:28;10.82;;;3.25;;
30553;SDS011;17335;50.720;7.452;2023-12-28T08:06:55;6.43;;;2.42;;
30553;SDS011;17335;50.720;7.452;2023-12-28T08:09:22;3.97;;;2.00;;
30553;SDS011;17335;50.720;7.452;2023-12-28T08:11:49;3.58;;;2.17;;
30553;SDS011;17335;50.720;7.452;2023-12-28T08:14:15;6.70;;;2.40;;
30553;SDS011;17335;50.720;7.452;2023-12-28T08:16:42;3.35;;;1.73;;
30553;SDS011;17335;50.720;7.452;2023-12-28T08:19:08;2.97;;;1.77;;
30553;SDS011;17335;50.720;7.452;2023-12-28T08:21:35;6.07;;;2.42;;
30553;SDS011;17335;50.720;7.452;2023-12-28T08:24:02;6.50;;;1.98;;
30553;SDS011;17335;50.720;7.452;2023-12-28T08:26:28;6.50;;;2.10;;
30553;SDS011;17335;50.720;7.452;2023-12-28T08:28:55;7.13;;;1.92;;
30553;SDS011;17335;50.720;7.452;2023-12-28T08:31:22;4.30;;;2.00;;
30553;SDS011;17335;50.720;7.452;2023-12-28T08:33:49;4.75;;;1.73;;
30553;SDS011;17335;50.720;7.452;2023-12-28T08:36:16;5.45;;;1.90;;
30553;SDS011;17335;50.720;7.452;2023-12-28T08:38:44;3.28;;;1.48;;
30553;SDS011;17335;50.720;7.452;2023-12-28T08:43:50;3.17;;;1.70;;
30553;SDS011;17335;50.720;7.452;2023-12-28T08:46:18;3.95;;;1.92;;
30553;SDS011;17335;50.720;7.452;2023-12-28T08:48:45;6.25;;;1.70;;
30553;SDS011;17335;50.720;7.452;2023-12-28T08:51:14;4.85;;;1.90;;
30553;SDS011;17335;50.720;7.452;2023-12-28T08:53:41;4.53;;;2.28;;
30553;SDS011;17335;50.720;7.452;2023-12-28T08:58:46;5.72;;;1.95;;
30553;SDS011;17335;50.720;7.452;2023-12-28T09:01:19;5.18;;;2.20;;
30553;SDS011;17335;50.720;7.452;2023-12-28T09:03:51;6.32;;;2.10;;
30553;SDS011;17335;50.720;7.452;2023-12-28T09:06:19;7.13;;;2.20;;
30553;SDS011;17335;50.720;7.452;2023-12-28T09:08:48;6.35;;;2.15;;
30553;SDS011;17335;50.720;7.452;2023-12-28T09:11:16;8.27;;;2.25;;
30553;SDS011;17335;50.720;7.452;2023-12-28T09:13:44;4.20;;;2.35;;
30553;SDS011;17335;50.720;7.452;2023-12-28T09:16:11;7.35;;;2.17;;
30553;SDS011;17335;50.720;7.452;2023-12-28T09:18:39;8.32;;;2.63;;
30553;SDS011;17335;50.720;7.452;2023-12-28T09:21:07;6.13;;;1.88;;
30553;SDS011;17335;50.720;7.452;2023-12-28T09:23:36;5.25;;;1.98;;
30553;SDS011;17335;50.720;7.452;2023-12-28T09:26:03;3.67;;;1.92;;
30553;SDS011;17335;50.720;7.452;2023-12-28T09:28:31;4.60;;;2.30;;
30553;SDS011;17335;50.720;7.452;2023-12-28T09:30:59;6.60;;;1.80;;
30553;SDS011;17335;50.720;7.452;2023-12-28T09:33:26;5.15;;;2.10;;
30553;SDS011;17335;50.720;7.452;2023-12-28T09:35:53;5.40;;;1.92;;
30553;SDS011;17335;50.720;7.452;2023-12-28T09:38:20;3.95;;;2.08;;
30553;SDS011;17335;50.720;7.452;2023-12-28T09:40:47;7.75;;;2.22;;
30553;SDS011;17335;50.720;7.452;2023-12-28T09:43:25;4.88;;;1.90;;
30553;SDS011;17335;50.720;7.452;2023-12-28T09:45:53;4.38;;;1.77;;
30553;SDS011;17335;50.720;7.452;2023-12-28T09:48:21;2.63;;;1.23;;
30553;SDS011;17335;50.720;7.452;2023-12-28T09:50:53;7.85;;;2.00;;
30553;SDS011;17335;50.720;7.452;2023-12-28T09:53:24;6.50;;;1.67;;
30553;SDS011;17335;50.720;7.452;2023-12-28T09:55:52;5.55;;;1.40;;
30553;SDS011;17335;50.720;7.452;2023-12-28T09:58:19;5.82;;;1.80;;
30553;SDS011;17335;50.720;7.452;2023-12-28T10:00:47;2.78;;;1.25;;
30553;SDS011;17335;50.720;7.452;2023-12-28T10:03:16;5.13;;;1.60;;
30553;SDS011;17335;50.720;7.452;2023-12-28T10:05:44;4.65;;;1.52;;
30553;SDS011;17335;50.720;7.452;2023-12-28T10:08:11;2.13;;;1.10;;
30553;SDS011;17335;50.720;7.452;2023-12-28T10:10:40;5.60;;;1.30;;
30553;SDS011;17335;50.720;7.452;2023-12-28T10:13:07;5.70;;;1.38;;
30553;SDS011;17335;50.720;7.452;2023-12-28T10:15:35;3.47;;;1.50;;
30553;SDS011;17335;50.720;7.452;2023-12-28T10:18:03;4.57;;;1.50;;
30553;SDS011;17335;50.720;7.452;2023-12-28T10:20:31;4.30;;;1.45;;
30553;SDS011;17335;50.720;7.452;2023-12-28T10:22:58;4.13;;;1.30;;
30553;SDS011;17335;50.720;7.452;2023-12-28T10:25:26;5.10;;;1.33;;
30553;SDS011;17335;50.720;7.452;2023-12-28T10:27:54;3.58;;;1.48;;
30553;SDS011;17335;50.720;7.452;2023-12-28T10:30:21;2.35;;;1.20;;
30553;SDS011;17335;50.720;7.452;2023-12-28T10:32:48;5.35;;;1.10;;
30553;SDS011;17335;50.720;7.452;2023-12-28T10:35:15;10.25;;;1.60;;
30553;SDS011;17335;50.720;7.452;2023-12-28T10:37:43;3.15;;;1.45;;
30553;SDS011;17335;50.720;7.452;2023-12-28T10:40:14;5.28;;;1.50;;
30553;SDS011;17335;50.720;7.452;2023-12-28T10:43:17;5.47;;;1.55;;
30553;SDS011;17335;50.720;7.452;2023-12-28T10:45:39;6.63;;;1.30;;
30553;SDS011;17335;50.720;7.452;2023-12-28T10:48:12;6.80;;;1.33;;
30553;SDS011;17335;50.720;7.452;2023-12-28T10:58:32;3.70;;;1.42;;
30553;SDS011;17335;50.720;7.452;2023-12-28T11:01:05;6.70;;;1.17;;
30553;SDS011;17335;50.720;7.452;2023-12-28T11:03:37;2.03;;;1.00;;
30553;SDS011;17335;50.720;7.452;2023-12-28T11:06:05;15.63;;;2.72;;
30553;SDS011;17335;50.720;7.452;2023-12-28T11:08:33;4.07;;;1.50;;
30553;SDS011;17335;50.720;7.452;2023-12-28T11:11:02;3.13;;;1.40;;
30553;SDS011;17335;50.720;7.452;2023-12-28T11:13:31;5.28;;;1.48;;
30553;SDS011;17335;50.720;7.452;2023-12-28T11:16:00;6.47;;;1.60;;
30553;SDS011;17335;50.720;7.452;2023-12-28T11:18:27;4.13;;;1.38;;
30553;SDS011;17335;50.720;7.452;2023-12-28T11:20:55;6.82;;;1.48;;
30553;SDS011;17335;50.720;7.452;2023-12-28T11:23:22;5.07;;;1.48;;
30553;SDS011;17335;50.720;7.452;2023-12-28T11:25:52;4.18;;;1.92;;
